sensor_id;sensor_type;location;lat;lon;timestamp;temperature;humidity
52621;DHT22;38515;53.160;6.990;2023-04-28T00:00:06;5.00;99.90
52621;DHT22;38515;53.160;6.990;2023-04-28T00:02:33;4.90;99.90
52621;DHT22;38515;53.160;6.990;2023-04-28T00:04:59;4.90;99.90
52621;DHT22;38515;53.160;6.990;2023-04-28T00:07:24;4.90;99.90
52621;DHT22;38515;53.160;6.990;2023-04-28T00:09:51;5.00;99.90
52621;DHT22;38515;53.160;6.990;2023-04-28T00:12:17;4.90;99.90
52621;DHT22;38515;53.160;6.990;2023-04-28T00:14:42;5.00;99.90
52621;DHT22;38515;53.160;6.990;2023-04-28T00:17:08;4.90;99.90
52621;DHT22;38515;53.160;6.990;2023-04-28T00:19:35;4.90;99.90
52621;DHT22;38515;53.160;6.990;2023-04-28T00:22:01;4.90;99.90
52621;DHT22;38515;53.160;6.990;2023-04-28T00:24:27;4.90;99.90
52621;DHT22;38515;53.160;6.990;2023-04-28T00:26:52;4.90;99.90
52621;DHT22;38515;53.160;6.990;2023-04-28T00:29:18;6.10;99.90
52621;DHT22;38515;53.160;6.990;2023-04-28T00:31:44;4.80;99.90
52621;DHT22;38515;53.160;6.990;2023-04-28T00:34:10;5.00;99.90
52621;DHT22;38515;53.160;6.990;2023-04-28T00:36:38;4.80;99.90
52621;DHT22;38515;53.160;6.990;2023-04-28T00:39:04;4.70;99.90
52621;DHT22;38515;53.160;6.990;2023-04-28T00:41:30;4.70;99.90
52621;DHT22;38515;53.160;6.990;2023-04-28T00:43:56;4.70;99.90
52621;DHT22;38515;53.160;6.990;2023-04-28T00:46:26;4.60;99.90
52621;DHT22;38515;53.160;6.990;2023-04-28T00:48:52;3.90;99.90
52621;DHT22;38515;53.160;6.990;2023-04-28T00:51:18;4.60;99.90
52621;DHT22;38515;53.160;6.990;2023-04-28T00:53:44;4.00;99.90
52621;DHT22;38515;53.160;6.990;2023-04-28T00:56:10;4.60;99.90
52621;DHT22;38515;53.160;6.990;2023-04-28T00:58:37;4.60;99.90
52621;DHT22;38515;53.160;6.990;2023-04-28T01:01:04;4.70;99.90
52621;DHT22;38515;53.160;6.990;2023-04-28T01:03:35;4.70;99.90
52621;DHT22;38515;53.160;6.990;2023-04-28T01:06:04;4.70;99.90
52621;DHT22;38515;53.160;6.990;2023-04-28T01:08:31;4.80;99.90
52621;DHT22;38515;53.160;6.990;2023-04-28T01:10:57;4.70;99.90
52621;DHT22;38515;53.160;6.990;2023-04-28T01:13:23;4.80;99.90
52621;DHT22;38515;53.160;6.990;2023-04-28T01:15:49;4.80;99.90
52621;DHT22;38515;53.160;6.990;2023-04-28T01:18:15;4.90;99.90
52621;DHT22;38515;53.160;6.990;2023-04-28T01:20:42;4.80;99.90
52621;DHT22;38515;53.160;6.990;2023-04-28T01:23:15;4.80;99.90
52621;DHT22;38515;53.160;6.990;2023-04-28T01:25:42;4.80;99.90
52621;DHT22;38515;53.160;6.990;2023-04-28T01:28:09;4.80;99.90
52621;DHT22;38515;53.160;6.990;2023-04-28T01:30:35;4.90;99.90
52621;DHT22;38515;53.160;6.990;2023-04-28T01:33:01;4.90;99.90
52621;DHT22;38515;53.160;6.990;2023-04-28T01:35:27;4.90;99.90
52621;DHT22;38515;53.160;6.990;2023-04-28T01:37:53;4.90;99.90
52621;DHT22;38515;53.160;6.990;2023-04-28T01:40:18;4.90;99.90
52621;DHT22;38515;53.160;6.990;2023-04-28T01:42:44;4.90;99.90
52621;DHT22;38515;53.160;6.990;2023-04-28T01:45:10;4.90;99.90
52621;DHT22;38515;53.160;6.990;2023-04-28T01:47:37;4.80;99.90
52621;DHT22;38515;53.160;6.990;2023-04-28T01:50:03;4.80;99.90
52621;DHT22;38515;53.160;6.990;2023-04-28T01:52:29;4.90;99.90
52621;DHT22;38515;53.160;6.990;2023-04-28T01:54:55;4.90;99.90
52621;DHT22;38515;53.160;6.990;2023-04-28T01:57:21;5.00;99.90
52621;DHT22;38515;53.160;6.990;2023-04-28T01:59:47;4.90;99.90
52621;DHT22;38515;53.160;6.990;2023-04-28T02:02:13;4.90;99.90
52621;DHT22;38515;53.160;6.990;2023-04-28T02:04:39;4.90;99.90
52621;DHT22;38515;53.160;6.990;2023-04-28T02:07:06;4.90;99.90
52621;DHT22;38515;53.160;6.990;2023-04-28T02:09:34;4.90;99.90
52621;DHT22;38515;53.160;6.990;2023-04-28T02:12:01;4.90;99.90
52621;DHT22;38515;53.160;6.990;2023-04-28T02:14:27;4.90;99.90
52621;DHT22;38515;53.160;6.990;2023-04-28T02:16:53;4.90;99.90
52621;DHT22;38515;53.160;6.990;2023-04-28T02:19:19;5.00;99.90
52621;DHT22;38515;53.160;6.990;2023-04-28T02:21:45;4.80;99.90
52621;DHT22;38515;53.160;6.990;2023-04-28T02:24:10;4.80;99.90
52621;DHT22;38515;53.160;6.990;2023-04-28T02:26:37;4.80;99.90
52621;DHT22;38515;53.160;6.990;2023-04-28T02:29:03;4.70;99.90
52621;DHT22;38515;53.160;6.990;2023-04-28T02:31:28;4.70;99.90
52621;DHT22;38515;53.160;6.990;2023-04-28T02:33:54;4.70;99.90
52621;DHT22;38515;53.160;6.990;2023-04-28T02:36:20;4.70;99.90
52621;DHT22;38515;53.160;6.990;2023-04-28T02:38:46;4.70;99.90
52621;DHT22;38515;53.160;6.990;2023-04-28T02:41:12;4.70;99.90
52621;DHT22;38515;53.160;6.990;2023-04-28T02:43:39;4.70;99.90
52621;DHT22;38515;53.160;6.990;2023-04-28T02:46:05;4.70;99.90
52621;DHT22;38515;53.160;6.990;2023-04-28T02:48:32;4.70;99.90
52621;DHT22;38515;53.160;6.990;2023-04-28T02:51:00;4.70;99.90
52621;DHT22;38515;53.160;6.990;2023-04-28T02:53:26;4.70;99.90
52621;DHT22;38515;53.160;6.990;2023-04-28T02:55:52;4.80;99.90
52621;DHT22;38515;53.160;6.990;2023-04-28T02:58:18;4.70;99.90
52621;DHT22;38515;53.160;6.990;2023-04-28T03:00:44;4.70;99.90
52621;DHT22;38515;53.160;6.990;2023-04-28T03:03:11;4.80;99.90
52621;DHT22;38515;53.160;6.990;2023-04-28T03:05:36;4.70;99.90
52621;DHT22;38515;53.160;6.990;2023-04-28T03:08:03;4.70;99.90
52621;DHT22;38515;53.160;6.990;2023-04-28T03:10:29;4.70;99.90
52621;DHT22;38515;53.160;6.990;2023-04-28T03:12:55;4.70;99.90
52621;DHT22;38515;53.160;6.990;2023-04-28T03:15:20;4.70;99.90
52621;DHT22;38515;53.160;6.990;2023-04-28T03:17:46;4.80;99.90
52621;DHT22;38515;53.160;6.990;2023-04-28T03:20:12;4.80;99.90
52621;DHT22;38515;53.160;6.990;2023-04-28T03:22:38;4.80;99.90
52621;DHT22;38515;53.160;6.990;2023-04-28T03:25:04;4.80;99.90
52621;DHT22;38515;53.160;6.990;2023-04-28T03:27:30;4.90;99.90
52621;DHT22;38515;53.160;6.990;2023-04-28T03:29:56;4.90;99.90
52621;DHT22;38515;53.160;6.990;2023-04-28T03:32:22;5.00;99.90
52621;DHT22;38515;53.160;6.990;2023-04-28T03:34:48;5.00;99.90
52621;DHT22;38515;53.160;6.990;2023-04-28T03:37:14;5.00;99.90
52621;DHT22;38515;53.160;6.990;2023-04-28T03:39:39;5.00;99.90
52621;DHT22;38515;53.160;6.990;2023-04-28T03:42:05;5.00;99.90
52621;DHT22;38515;53.160;6.990;2023-04-28T03:44:31;5.00;99.90
52621;DHT22;38515;53.160;6.990;2023-04-28T03:46:57;5.00;99.90
52621;DHT22;38515;53.160;6.990;2023-04-28T03:49:23;5.00;99.90
52621;DHT22;38515;53.160;6.990;2023-04-28T03:51:48;5.00;99.90
52621;DHT22;38515;53.160;6.990;2023-04-28T03:54:16;5.00;99.90
52621;DHT22;38515;53.160;6.990;2023-04-28T03:56:41;5.00;99.90
52621;DHT22;38515;53.160;6.990;2023-04-28T03:59:08;5.00;99.90
52621;DHT22;38515;53.160;6.990;2023-04-28T04:01:36;5.00;99.90
52621;DHT22;38515;53.160;6.990;2023-04-28T04:04:03;5.00;99.90
52621;DHT22;38515;53.160;6.990;2023-04-28T04:06:29;5.00;99.90
52621;DHT22;38515;53.160;6.990;2023-04-28T04:08:56;5.00;99.90
52621;DHT22;38515;53.160;6.990;2023-04-28T04:11:21;4.90;99.90
52621;DHT22;38515;53.160;6.990;2023-04-28T04:13:47;4.90;99.90
52621;DHT22;38515;53.160;6.990;2023-04-28T04:16:13;4.90;99.90
52621;DHT22;38515;53.160;6.990;2023-04-28T04:18:41;5.00;99.90
52621;DHT22;38515;53.160;6.990;2023-04-28T04:23:33;4.90;99.90
52621;DHT22;38515;53.160;6.990;2023-04-28T04:25:59;4.90;99.90
52621;DHT22;38515;53.160;6.990;2023-04-28T04:28:25;4.90;99.90
52621;DHT22;38515;53.160;6.990;2023-04-28T04:30:51;4.90;99.90
52621;DHT22;38515;53.160;6.990;2023-04-28T04:33:17;4.90;99.90
52621;DHT22;38515;53.160;6.990;2023-04-28T04:35:43;4.90;99.90
52621;DHT22;38515;53.160;6.990;2023-04-28T04:38:09;5.00;99.90
52621;DHT22;38515;53.160;6.990;2023-04-28T04:40:35;5.00;99.90
52621;DHT22;38515;53.160;6.990;2023-04-28T04:43:01;5.00;99.90
52621;DHT22;38515;53.160;6.990;2023-04-28T04:45:27;5.00;99.90
52621;DHT22;38515;53.160;6.990;2023-04-28T04:47:53;5.00;99.90
52621;DHT22;38515;53.160;6.990;2023-04-28T04:50:19;5.10;99.90
52621;DHT22;38515;53.160;6.990;2023-04-28T04:52:44;5.00;99.90
52621;DHT22;38515;53.160;6.990;2023-04-28T04:55:10;5.00;99.90
52621;DHT22;38515;53.160;6.990;2023-04-28T04:57:36;5.10;99.90
52621;DHT22;38515;53.160;6.990;2023-04-28T05:00:03;5.10;99.90
52621;DHT22;38515;53.160;6.990;2023-04-28T05:02:29;5.10;99.90
52621;DHT22;38515;53.160;6.990;2023-04-28T05:04:55;5.20;99.90
52621;DHT22;38515;53.160;6.990;2023-04-28T05:07:21;5.20;99.90
52621;DHT22;38515;53.160;6.990;2023-04-28T05:09:46;5.20;99.90
52621;DHT22;38515;53.160;6.990;2023-04-28T05:12:12;5.20;99.90
52621;DHT22;38515;53.160;6.990;2023-04-28T05:14:38;5.20;99.90
52621;DHT22;38515;53.160;6.990;2023-04-28T05:17:04;5.20;99.90
52621;DHT22;38515;53.160;6.990;2023-04-28T05:19:30;5.20;99.90
52621;DHT22;38515;53.160;6.990;2023-04-28T05:21:56;5.20;99.90
52621;DHT22;38515;53.160;6.990;2023-04-28T05:24:22;5.20;99.90
52621;DHT22;38515;53.160;6.990;2023-04-28T05:26:52;5.20;99.90
52621;DHT22;38515;53.160;6.990;2023-04-28T05:29:19;5.20;99.90
52621;DHT22;38515;53.160;6.990;2023-04-28T05:31:46;5.30;99.90
52621;DHT22;38515;53.160;6.990;2023-04-28T05:34:12;5.30;99.90
52621;DHT22;38515;53.160;6.990;2023-04-28T05:36:38;5.20;99.90
52621;DHT22;38515;53.160;6.990;2023-04-28T05:39:04;5.20;99.90
52621;DHT22;38515;53.160;6.990;2023-04-28T05:41:30;5.30;99.90
52621;DHT22;38515;53.160;6.990;2023-04-28T05:43:55;5.30;99.90
52621;DHT22;38515;53.160;6.990;2023-04-28T05:46:21;5.30;99.90
52621;DHT22;38515;53.160;6.990;2023-04-28T05:48:47;5.40;99.90
52621;DHT22;38515;53.160;6.990;2023-04-28T05:51:13;5.40;99.90
52621;DHT22;38515;53.160;6.990;2023-04-28T05:53:40;5.40;99.90
52621;DHT22;38515;53.160;6.990;2023-04-28T05:56:06;5.40;99.90
52621;DHT22;38515;53.160;6.990;2023-04-28T05:58:33;4.30;99.90
52621;DHT22;38515;53.160;6.990;2023-04-28T06:00:59;5.50;99.90
52621;DHT22;38515;53.160;6.990;2023-04-28T06:03:25;5.60;99.90
52621;DHT22;38515;53.160;6.990;2023-04-28T06:05:50;5.60;99.90
52621;DHT22;38515;53.160;6.990;2023-04-28T06:08:17;5.70;99.90
52621;DHT22;38515;53.160;6.990;2023-04-28T06:10:43;5.80;99.90
52621;DHT22;38515;53.160;6.990;2023-04-28T06:13:10;5.90;99.90
52621;DHT22;38515;53.160;6.990;2023-04-28T06:15:36;6.00;99.90
52621;DHT22;38515;53.160;6.990;2023-04-28T06:18:02;6.10;99.90
52621;DHT22;38515;53.160;6.990;2023-04-28T06:20:30;6.10;99.90
52621;DHT22;38515;53.160;6.990;2023-04-28T06:22:56;6.20;99.90
52621;DHT22;38515;53.160;6.990;2023-04-28T06:25:22;6.20;99.90
52621;DHT22;38515;53.160;6.990;2023-04-28T06:27:48;6.30;99.90
52621;DHT22;38515;53.160;6.990;2023-04-28T06:30:17;6.30;99.90
52621;DHT22;38515;53.160;6.990;2023-04-28T06:32:45;6.30;99.90
52621;DHT22;38515;53.160;6.990;2023-04-28T06:35:11;6.30;99.90
52621;DHT22;38515;53.160;6.990;2023-04-28T06:37:37;6.40;99.90
52621;DHT22;38515;53.160;6.990;2023-04-28T06:40:03;6.40;99.90
52621;DHT22;38515;53.160;6.990;2023-04-28T06:42:29;6.50;99.90
52621;DHT22;38515;53.160;6.990;2023-04-28T06:44:55;6.40;99.90
52621;DHT22;38515;53.160;6.990;2023-04-28T06:47:21;6.40;99.90
52621;DHT22;38515;53.160;6.990;2023-04-28T06:49:47;6.50;99.90
52621;DHT22;38515;53.160;6.990;2023-04-28T06:52:15;6.60;99.90
52621;DHT22;38515;53.160;6.990;2023-04-28T06:54:41;6.60;99.90
52621;DHT22;38515;53.160;6.990;2023-04-28T06:57:07;6.60;99.90
52621;DHT22;38515;53.160;6.990;2023-04-28T06:59:33;6.70;99.90
52621;DHT22;38515;53.160;6.990;2023-04-28T07:01:59;6.70;99.90
52621;DHT22;38515;53.160;6.990;2023-04-28T07:04:25;6.70;99.90
52621;DHT22;38515;53.160;6.990;2023-04-28T07:06:51;6.80;99.90
52621;DHT22;38515;53.160;6.990;2023-04-28T07:09:18;6.80;99.90
52621;DHT22;38515;53.160;6.990;2023-04-28T07:11:44;6.90;99.90
52621;DHT22;38515;53.160;6.990;2023-04-28T07:14:10;6.90;99.90
52621;DHT22;38515;53.160;6.990;2023-04-28T07:16:36;6.90;99.90
52621;DHT22;38515;53.160;6.990;2023-04-28T07:19:02;7.00;99.90
52621;DHT22;38515;53.160;6.990;2023-04-28T07:21:27;7.00;99.90
52621;DHT22;38515;53.160;6.990;2023-04-28T07:23:53;7.10;99.90
52621;DHT22;38515;53.160;6.990;2023-04-28T07:26:22;7.10;99.90
52621;DHT22;38515;53.160;6.990;2023-04-28T07:28:48;7.10;99.90
52621;DHT22;38515;53.160;6.990;2023-04-28T07:31:14;7.20;99.90
52621;DHT22;38515;53.160;6.990;2023-04-28T07:33:40;7.20;99.90
52621;DHT22;38515;53.160;6.990;2023-04-28T07:36:06;7.20;99.90
52621;DHT22;38515;53.160;6.990;2023-04-28T07:38:35;7.20;99.90
52621;DHT22;38515;53.160;6.990;2023-04-28T07:41:05;7.20;99.90
52621;DHT22;38515;53.160;6.990;2023-04-28T07:43:30;7.20;99.90
52621;DHT22;38515;53.160;6.990;2023-04-28T07:45:56;7.20;99.90
52621;DHT22;38515;53.160;6.990;2023-04-28T07:48:22;7.30;99.90
52621;DHT22;38515;53.160;6.990;2023-04-28T07:50:48;7.40;99.90
52621;DHT22;38515;53.160;6.990;2023-04-28T07:53:14;7.50;99.90
52621;DHT22;38515;53.160;6.990;2023-04-28T07:55:40;7.50;99.90
52621;DHT22;38515;53.160;6.990;2023-04-28T07:58:09;7.60;99.90
52621;DHT22;38515;53.160;6.990;2023-04-28T08:00:35;7.70;99.90
52621;DHT22;38515;53.160;6.990;2023-04-28T08:03:01;7.80;99.90
52621;DHT22;38515;53.160;6.990;2023-04-28T08:05:27;7.80;99.90
52621;DHT22;38515;53.160;6.990;2023-04-28T08:07:53;7.80;99.90
52621;DHT22;38515;53.160;6.990;2023-04-28T08:10:19;7.90;99.90
52621;DHT22;38515;53.160;6.990;2023-04-28T08:12:45;7.80;99.90
52621;DHT22;38515;53.160;6.990;2023-04-28T08:15:11;7.80;99.90
52621;DHT22;38515;53.160;6.990;2023-04-28T08:17:37;7.90;99.90
52621;DHT22;38515;53.160;6.990;2023-04-28T08:20:06;8.00;99.90
52621;DHT22;38515;53.160;6.990;2023-04-28T08:22:32;8.00;99.90
52621;DHT22;38515;53.160;6.990;2023-04-28T08:24:58;8.00;99.90
52621;DHT22;38515;53.160;6.990;2023-04-28T08:27:23;8.10;99.90
52621;DHT22;38515;53.160;6.990;2023-04-28T08:29:50;8.20;99.90
52621;DHT22;38515;53.160;6.990;2023-04-28T08:32:16;8.20;99.90
52621;DHT22;38515;53.160;6.990;2023-04-28T08:34:42;8.20;99.90
52621;DHT22;38515;53.160;6.990;2023-04-28T08:37:08;8.40;99.90
52621;DHT22;38515;53.160;6.990;2023-04-28T08:39:34;8.40;99.90
52621;DHT22;38515;53.160;6.990;2023-04-28T08:42:03;8.50;99.90
52621;DHT22;38515;53.160;6.990;2023-04-28T08:44:39;8.60;99.90
52621;DHT22;38515;53.160;6.990;2023-04-28T08:47:12;8.70;99.90
52621;DHT22;38515;53.160;6.990;2023-04-28T08:49:41;8.70;99.90
52621;DHT22;38515;53.160;6.990;2023-04-28T08:52:10;8.80;99.90
52621;DHT22;38515;53.160;6.990;2023-04-28T08:54:38;8.90;99.90
52621;DHT22;38515;53.160;6.990;2023-04-28T08:57:08;9.00;99.90
52621;DHT22;38515;53.160;6.990;2023-04-28T08:59:36;9.20;99.90
52621;DHT22;38515;53.160;6.990;2023-04-28T09:02:03;9.30;99.90
52621;DHT22;38515;53.160;6.990;2023-04-28T09:04:29;9.30;99.90
52621;DHT22;38515;53.160;6.990;2023-04-28T09:06:55;9.40;99.90
52621;DHT22;38515;53.160;6.990;2023-04-28T09:11:52;9.40;99.90
52621;DHT22;38515;53.160;6.990;2023-04-28T09:14:18;9.40;99.90
52621;DHT22;38515;53.160;6.990;2023-04-28T09:16:44;9.40;99.90
52621;DHT22;38515;53.160;6.990;2023-04-28T09:19:10;9.30;99.90
52621;DHT22;38515;53.160;6.990;2023-04-28T09:21:55;9.30;99.90
52621;DHT22;38515;53.160;6.990;2023-04-28T09:24:40;9.40;99.90
52621;DHT22;38515;53.160;6.990;2023-04-28T09:27:09;9.50;99.90
52621;DHT22;38515;53.160;6.990;2023-04-28T09:29:51;9.60;99.90
52621;DHT22;38515;53.160;6.990;2023-04-28T09:32:20;9.70;99.90
52621;DHT22;38515;53.160;6.990;2023-04-28T09:34:49;9.70;99.90
52621;DHT22;38515;53.160;6.990;2023-04-28T09:37:17;9.60;99.90
52621;DHT22;38515;53.160;6.990;2023-04-28T09:39:52;9.60;99.90
52621;DHT22;38515;53.160;6.990;2023-04-28T09:42:37;9.60;99.90
52621;DHT22;38515;53.160;6.990;2023-04-28T09:45:07;9.60;99.90
52621;DHT22;38515;53.160;6.990;2023-04-28T09:47:35;9.60;99.90
52621;DHT22;38515;53.160;6.990;2023-04-28T09:50:07;9.70;99.90
52621;DHT22;38515;53.160;6.990;2023-04-28T09:52:36;9.80;99.90
52621;DHT22;38515;53.160;6.990;2023-04-28T09:55:04;9.90;99.90
52621;DHT22;38515;53.160;6.990;2023-04-28T09:57:32;10.10;99.90
52621;DHT22;38515;53.160;6.990;2023-04-28T09:59:58;10.30;99.90
52621;DHT22;38515;53.160;6.990;2023-04-28T10:02:25;10.40;99.90
52621;DHT22;38515;53.160;6.990;2023-04-28T10:04:51;10.60;99.90
52621;DHT22;38515;53.160;6.990;2023-04-28T10:07:19;10.90;99.90
52621;DHT22;38515;53.160;6.990;2023-04-28T10:09:49;11.00;99.90
52621;DHT22;38515;53.160;6.990;2023-04-28T10:12:16;11.20;99.90
52621;DHT22;38515;53.160;6.990;2023-04-28T10:14:43;11.50;99.90
52621;DHT22;38515;53.160;6.990;2023-04-28T10:17:13;11.60;99.90
52621;DHT22;38515;53.160;6.990;2023-04-28T10:19:43;11.60;99.90
52621;DHT22;38515;53.160;6.990;2023-04-28T10:27:31;12.30;99.90
52621;DHT22;38515;53.160;6.990;2023-04-28T10:30:18;12.30;99.90
52621;DHT22;38515;53.160;6.990;2023-04-28T10:32:44;12.40;99.90
52621;DHT22;38515;53.160;6.990;2023-04-28T10:38:05;12.80;99.90
52621;DHT22;38515;53.160;6.990;2023-04-28T10:43:01;12.90;99.90
52621;DHT22;38515;53.160;6.990;2023-04-28T10:48:22;13.00;99.90
52621;DHT22;38515;53.160;6.990;2023-04-28T10:56:21;12.70;99.90
52621;DHT22;38515;53.160;6.990;2023-04-28T10:58:52;12.70;99.90
52621;DHT22;38515;53.160;6.990;2023-04-28T11:03:49;12.50;99.90
52621;DHT22;38515;53.160;6.990;2023-04-28T11:06:35;12.50;99.90
52621;DHT22;38515;53.160;6.990;2023-04-28T11:16:58;12.30;99.90
52621;DHT22;38515;53.160;6.990;2023-04-28T11:19:30;12.40;99.90
52621;DHT22;38515;53.160;6.990;2023-04-28T11:22:01;12.40;99.90
52621;DHT22;38515;53.160;6.990;2023-04-28T11:24:28;12.40;99.90
52621;DHT22;38515;53.160;6.990;2023-04-28T11:26:54;12.40;99.90
52621;DHT22;38515;53.160;6.990;2023-04-28T11:29:34;12.30;99.90
52621;DHT22;38515;53.160;6.990;2023-04-28T11:32:08;12.30;99.90
52621;DHT22;38515;53.160;6.990;2023-04-28T11:34:35;12.20;99.90
52621;DHT22;38515;53.160;6.990;2023-04-28T11:37:02;12.10;99.90
52621;DHT22;38515;53.160;6.990;2023-04-28T11:39:33;12.10;99.90
52621;DHT22;38515;53.160;6.990;2023-04-28T11:42:01;12.00;99.90
52621;DHT22;38515;53.160;6.990;2023-04-28T11:44:29;11.80;99.90
52621;DHT22;38515;53.160;6.990;2023-04-28T11:46:57;11.70;99.90
52621;DHT22;38515;53.160;6.990;2023-04-28T11:49:30;11.60;99.90
52621;DHT22;38515;53.160;6.990;2023-04-28T11:52:04;11.60;99.90
52621;DHT22;38515;53.160;6.990;2023-04-28T11:54:31;11.60;99.90
52621;DHT22;38515;53.160;6.990;2023-04-28T11:56:57;11.70;99.90
52621;DHT22;38515;53.160;6.990;2023-04-28T11:59:28;11.70;99.90
52621;DHT22;38515;53.160;6.990;2023-04-28T12:01:59;11.80;99.90
52621;DHT22;38515;53.160;6.990;2023-04-28T12:04:36;11.90;99.90
52621;DHT22;38515;53.160;6.990;2023-04-28T12:07:10;11.80;99.90
52621;DHT22;38515;53.160;6.990;2023-04-28T12:09:38;11.90;99.90
52621;DHT22;38515;53.160;6.990;2023-04-28T12:12:15;12.00;99.90
52621;DHT22;38515;53.160;6.990;2023-04-28T12:14:58;12.10;99.90
52621;DHT22;38515;53.160;6.990;2023-04-28T12:17:30;12.10;99.90
52621;DHT22;38515;53.160;6.990;2023-04-28T12:19:59;12.10;99.90
52621;DHT22;38515;53.160;6.990;2023-04-28T12:22:25;12.10;99.90
52621;DHT22;38515;53.160;6.990;2023-04-28T12:25:10;12.10;99.90
52621;DHT22;38515;53.160;6.990;2023-04-28T12:27:38;12.10;99.90
52621;DHT22;38515;53.160;6.990;2023-04-28T12:32:46;12.20;99.90
52621;DHT22;38515;53.160;6.990;2023-04-28T12:35:12;12.30;99.90
52621;DHT22;38515;53.160;6.990;2023-04-28T12:37:38;12.30;99.90
52621;DHT22;38515;53.160;6.990;2023-04-28T12:40:07;12.40;99.90
52621;DHT22;38515;53.160;6.990;2023-04-28T12:42:34;12.40;99.90
52621;DHT22;38515;53.160;6.990;2023-04-28T12:44:59;12.40;99.90
52621;DHT22;38515;53.160;6.990;2023-04-28T12:47:25;12.40;99.90
52621;DHT22;38515;53.160;6.990;2023-04-28T12:49:51;12.30;99.90
52621;DHT22;38515;53.160;6.990;2023-04-28T12:52:21;12.20;99.90
52621;DHT22;38515;53.160;6.990;2023-04-28T12:54:47;12.20;99.90
52621;DHT22;38515;53.160;6.990;2023-04-28T12:57:18;12.10;99.90
52621;DHT22;38515;53.160;6.990;2023-04-28T12:59:45;12.20;99.90
52621;DHT22;38515;53.160;6.990;2023-04-28T13:02:15;12.20;99.90
52621;DHT22;38515;53.160;6.990;2023-04-28T13:04:41;12.30;99.90
52621;DHT22;38515;53.160;6.990;2023-04-28T13:07:13;12.30;99.90
52621;DHT22;38515;53.160;6.990;2023-04-28T13:09:40;12.40;99.90
52621;DHT22;38515;53.160;6.990;2023-04-28T13:12:07;12.50;99.90
52621;DHT22;38515;53.160;6.990;2023-04-28T13:14:33;12.60;99.90
52621;DHT22;38515;53.160;6.990;2023-04-28T13:16:59;12.50;99.90
52621;DHT22;38515;53.160;6.990;2023-04-28T13:19:26;12.40;99.90
52621;DHT22;38515;53.160;6.990;2023-04-28T13:21:52;12.40;99.90
52621;DHT22;38515;53.160;6.990;2023-04-28T13:24:18;12.30;99.90
52621;DHT22;38515;53.160;6.990;2023-04-28T13:26:44;12.30;99.90
52621;DHT22;38515;53.160;6.990;2023-04-28T13:29:11;12.30;99.90
52621;DHT22;38515;53.160;6.990;2023-04-28T13:31:36;12.30;99.90
52621;DHT22;38515;53.160;6.990;2023-04-28T13:34:03;12.40;99.90
52621;DHT22;38515;53.160;6.990;2023-04-28T13:36:33;12.40;99.90
52621;DHT22;38515;53.160;6.990;2023-04-28T13:38:59;12.50;99.90
52621;DHT22;38515;53.160;6.990;2023-04-28T13:41:25;12.30;99.90
52621;DHT22;38515;53.160;6.990;2023-04-28T13:43:52;12.50;99.90
52621;DHT22;38515;53.160;6.990;2023-04-28T13:46:19;12.50;99.90
52621;DHT22;38515;53.160;6.990;2023-04-28T13:48:45;12.60;99.90
52621;DHT22;38515;53.160;6.990;2023-04-28T13:51:11;12.70;99.90
52621;DHT22;38515;53.160;6.990;2023-04-28T13:53:37;12.80;99.90
52621;DHT22;38515;53.160;6.990;2023-04-28T13:56:06;12.80;99.90
52621;DHT22;38515;53.160;6.990;2023-04-28T13:58:33;12.80;99.90
52621;DHT22;38515;53.160;6.990;2023-04-28T14:00:59;12.70;99.90
52621;DHT22;38515;53.160;6.990;2023-04-28T14:03:26;12.70;99.90
52621;DHT22;38515;53.160;6.990;2023-04-28T14:05:54;12.60;99.90
52621;DHT22;38515;53.160;6.990;2023-04-28T14:08:20;12.60;99.90
52621;DHT22;38515;53.160;6.990;2023-04-28T14:10:47;12.50;99.90
52621;DHT22;38515;53.160;6.990;2023-04-28T14:13:13;12.50;99.90
52621;DHT22;38515;53.160;6.990;2023-04-28T14:15:39;12.50;99.90
52621;DHT22;38515;53.160;6.990;2023-04-28T14:18:07;12.50;99.90
52621;DHT22;38515;53.160;6.990;2023-04-28T14:20:34;12.50;99.90
52621;DHT22;38515;53.160;6.990;2023-04-28T14:23:00;12.40;99.90
52621;DHT22;38515;53.160;6.990;2023-04-28T14:25:26;12.30;99.90
52621;DHT22;38515;53.160;6.990;2023-04-28T14:27:52;12.30;99.90
52621;DHT22;38515;53.160;6.990;2023-04-28T14:30:19;12.20;99.90
52621;DHT22;38515;53.160;6.990;2023-04-28T14:32:46;12.10;99.90
52621;DHT22;38515;53.160;6.990;2023-04-28T14:35:12;12.10;99.90
52621;DHT22;38515;53.160;6.990;2023-04-28T14:37:39;12.00;99.90
52621;DHT22;38515;53.160;6.990;2023-04-28T14:40:05;12.00;99.90
52621;DHT22;38515;53.160;6.990;2023-04-28T14:42:33;11.90;99.90
52621;DHT22;38515;53.160;6.990;2023-04-28T14:45:08;12.00;99.90
52621;DHT22;38515;53.160;6.990;2023-04-28T14:47:36;11.90;99.90
52621;DHT22;38515;53.160;6.990;2023-04-28T14:50:02;11.90;99.90
52621;DHT22;38515;53.160;6.990;2023-04-28T14:52:28;11.90;99.90
52621;DHT22;38515;53.160;6.990;2023-04-28T14:54:55;11.90;99.90
52621;DHT22;38515;53.160;6.990;2023-04-28T14:57:21;11.90;99.90
52621;DHT22;38515;53.160;6.990;2023-04-28T14:59:47;11.80;99.90
52621;DHT22;38515;53.160;6.990;2023-04-28T15:02:13;11.80;99.90
52621;DHT22;38515;53.160;6.990;2023-04-28T15:04:39;11.80;99.90
52621;DHT22;38515;53.160;6.990;2023-04-28T15:07:06;11.80;99.90
52621;DHT22;38515;53.160;6.990;2023-04-28T15:09:34;11.80;99.90
52621;DHT22;38515;53.160;6.990;2023-04-28T15:12:01;11.80;99.90
52621;DHT22;38515;53.160;6.990;2023-04-28T15:14:27;11.80;99.90
52621;DHT22;38515;53.160;6.990;2023-04-28T15:16:53;11.80;99.90
52621;DHT22;38515;53.160;6.990;2023-04-28T15:19:19;11.80;99.90
52621;DHT22;38515;53.160;6.990;2023-04-28T15:21:46;11.80;99.90
52621;DHT22;38515;53.160;6.990;2023-04-28T15:24:13;11.80;99.90
52621;DHT22;38515;53.160;6.990;2023-04-28T15:26:39;11.80;99.90
52621;DHT22;38515;53.160;6.990;2023-04-28T15:29:04;11.80;99.90
52621;DHT22;38515;53.160;6.990;2023-04-28T15:31:30;11.80;99.90
52621;DHT22;38515;53.160;6.990;2023-04-28T15:33:56;11.80;99.90
52621;DHT22;38515;53.160;6.990;2023-04-28T15:36:22;11.80;99.90
52621;DHT22;38515;53.160;6.990;2023-04-28T15:38:48;11.80;99.90
52621;DHT22;38515;53.160;6.990;2023-04-28T15:41:16;11.80;99.90
52621;DHT22;38515;53.160;6.990;2023-04-28T15:43:42;11.70;99.90
52621;DHT22;38515;53.160;6.990;2023-04-28T15:46:12;11.70;99.90
52621;DHT22;38515;53.160;6.990;2023-04-28T15:48:39;11.60;99.90
52621;DHT22;38515;53.160;6.990;2023-04-28T15:51:06;11.60;99.90
52621;DHT22;38515;53.160;6.990;2023-04-28T15:53:32;11.50;99.90
52621;DHT22;38515;53.160;6.990;2023-04-28T15:55:59;11.50;99.90
52621;DHT22;38515;53.160;6.990;2023-04-28T15:58:25;11.50;99.90
52621;DHT22;38515;53.160;6.990;2023-04-28T16:32:22;10.80;99.90
52621;DHT22;38515;53.160;6.990;2023-04-28T16:34:48;11.20;99.90
52621;DHT22;38515;53.160;6.990;2023-04-28T16:37:14;11.00;99.90
52621;DHT22;38515;53.160;6.990;2023-04-28T16:39:40;10.90;99.90
52621;DHT22;38515;53.160;6.990;2023-04-28T16:42:06;10.90;99.90
52621;DHT22;38515;53.160;6.990;2023-04-28T16:44:33;10.80;99.90
52621;DHT22;38515;53.160;6.990;2023-04-28T16:46:59;10.80;99.90